Time;durP1;ratioP1;P1;durP2;ratioP2;P2;SDS_P1;SDS_P2;PMS_P1;PMS_P2;Temp;Humidity;BMP_temperature;BMP_pressure;BME280_temperature;BME280_humidity;BME280_pressure;Samples;Min_cycle;Max_cycle;Signal;HPM_P1;HPM_P2
2022/12/25 00:00:12;;;;;;;10.52;5.00;;;9.10;99.90;;;;;;4834888;29;20030;-77
2022/12/25 06:02:31;;;;;;;4.90;2.78;;;9.40;99.90;;;;;;5338915;23;20124;-76
2022/12/25 06:04:56;;;;;;;4.07;2.47;;;9.40;99.90;;;;;;4887321;29;20041;-77
2022/12/25 06:07:22;;;;;;;4.55;2.33;;;9.40;99.90;;;;;;4887609;29;20032;-76
2022/12/25 06:09:48;;;;;;;5.45;2.90;;;9.40;99.90;;;;;;4887559;29;20232;-76
2022/12/25 06:12:14;;;;;;;7.28;2.95;;;9.40;99.90;;;;;;4887823;29;20041;-76
2022/12/25 06:14:39;;;;;;;4.78;2.08;;;9.40;99.90;;;;;;4887666;29;20033;-76
2022/12/25 06:17:05;;;;;;;4.35;2.33;;;9.40;99.90;;;;;;4871208;29;20341;-75
2022/12/25 06:19:31;;;;;;;4.53;2.20;;;9.40;99.90;;;;;;4887661;29;20044;-75
2022/12/25 06:21:57;;;;;;;3.88;2.30;;;9.30;99.90;;;;;;4887417;29;20033;-75
2022/12/25 06:24:23;;;;;;;4.45;2.35;;;9.30;99.90;;;;;;4887431;29;20064;-75
2022/12/25 06:26:48;;;;;;;3.70;2.08;;;9.40;99.90;;;;;;4887032;29;20040;-75
2022/12/25 06:29:14;;;;;;;4.82;2.83;;;9.30;99.90;;;;;;4887965;29;20037;-78
2022/12/25 06:31:40;;;;;;;6.10;2.35;;;9.30;99.90;;;;;;4887719;29;20040;-75
2022/12/25 06:34:07;;;;;;;4.22;2.60;;;9.30;99.90;;;;;;4887421;29;20029;-76
2022/12/25 06:36:33;;;;;;;3.88;2.20;;;9.30;99.90;;;;;;4887876;29;20056;-76
2022/12/25 06:39:00;;;;;;;7.13;2.80;;;9.30;99.90;;;;;;4887195;29;20097;-78
2022/12/25 06:41:27;;;;;;;5.38;2.20;;;9.20;99.90;;;;;;4887851;29;20037;-77
2022/12/25 06:43:56;;;;;;;4.38;2.35;;;9.20;99.90;;;;;;4887254;29;20033;-78
2022/12/25 06:46:23;;;;;;;5.43;2.38;;;9.20;99.90;;;;;;4889370;29;20040;-77
2022/12/25 06:48:49;;;;;;;5.78;2.53;;;9.30;99.90;;;;;;4890962;29;20037;-77
2022/12/25 06:51:23;;;;;;;3.70;2.10;;;9.30;99.90;;;;;;4874526;29;20051;-76
2022/12/25 06:53:50;;;;;;;4.82;2.40;;;9.30;99.90;;;;;;4874187;29;20055;-77
2022/12/25 06:56:19;;;;;;;4.43;2.38;;;9.30;99.90;;;;;;4874121;29;20200;-75
2022/12/25 06:58:51;;;;;;;4.90;2.30;;;9.30;99.90;;;;;;4890601;29;20049;-77
2022/12/25 07:01:28;;;;;;;3.42;2.00;;;9.30;99.90;;;;;;4890905;29;20040;-76
2022/12/25 07:03:58;;;;;;;4.95;2.35;;;9.30;99.90;;;;;;4890265;29;20218;-74
2022/12/25 07:06:26;;;;;;;3.88;2.17;;;9.30;99.90;;;;;;4891155;29;20108;-74
2022/12/25 07:08:52;;;;;;;4.93;2.50;;;9.30;99.90;;;;;;4890497;29;20025;-76
2022/12/25 07:11:18;;;;;;;3.85;2.33;;;9.30;99.90;;;;;;4900134;29;20084;-74
2022/12/25 07:13:44;;;;;;;5.22;2.88;;;9.30;99.90;;;;;;4895174;29;20060;-75
2022/12/25 07:16:10;;;;;;;4.32;2.47;;;9.30;99.90;;;;;;4909542;29;20061;-75
2022/12/25 07:18:36;;;;;;;5.70;3.00;;;9.30;99.90;;;;;;4899513;29;20048;-77
2022/12/25 07:21:06;;;;;;;5.93;2.55;;;9.40;99.90;;;;;;4890058;29;20040;-75
2022/12/25 07:23:32;;;;;;;4.63;2.83;;;9.40;99.90;;;;;;4873929;29;20195;-75
2022/12/25 07:26:00;;;;;;;12.68;9.00;;;9.40;99.90;;;;;;4890218;29;20045;-77
2022/12/25 07:28:26;;;;;;;5.90;3.92;;;9.40;99.90;;;;;;4871882;29;20036;-76
2022/12/25 07:30:52;;;;;;;4.25;2.90;;;9.40;99.90;;;;;;4899634;29;20199;-77
2022/12/25 07:33:19;;;;;;;8.80;3.35;;;9.40;99.90;;;;;;4890108;29;20033;-76
2022/12/25 07:35:45;;;;;;;5.10;2.67;;;9.30;99.90;;;;;;4888508;29;20303;-76
2022/12/25 07:38:11;;;;;;;4.97;2.50;;;9.40;99.90;;;;;;4890181;29;20037;-75
2022/12/25 07:40:37;;;;;;;7.78;3.40;;;9.30;99.90;;;;;;4890034;29;20028;-75
2022/12/25 07:43:03;;;;;;;5.13;2.90;;;9.30;99.90;;;;;;4889840;29;20092;-74
2022/12/25 07:45:29;;;;;;;4.88;2.70;;;9.30;99.90;;;;;;4890402;29;20032;-76
2022/12/25 07:47:54;;;;;;;6.72;3.22;;;9.30;99.90;;;;;;4889845;29;20121;-76
2022/12/25 07:50:20;;;;;;;5.38;3.30;;;9.30;99.90;;;;;;4890243;29;20036;-75
2022/12/25 07:52:46;;;;;;;6.55;3.35;;;9.30;99.90;;;;;;4889826;29;20108;-76
2022/12/25 07:55:14;;;;;;;5.38;3.30;;;9.30;99.90;;;;;;4889997;29;20035;-78
2022/12/25 07:57:40;;;;;;;7.85;3.92;;;9.30;99.90;;;;;;4884180;29;20021;-78
2022/12/25 08:00:06;;;;;;;6.07;4.35;;;9.30;99.90;;;;;;4871037;29;20040;-76
2022/12/25 08:02:37;;;;;;;7.80;4.30;;;9.30;99.90;;;;;;4871135;29;20061;-76
2022/12/25 08:05:03;;;;;;;7.75;4.20;;;9.30;99.90;;;;;;4870998;29;20057;-76
2022/12/25 08:07:29;;;;;;;6.10;3.47;;;9.40;99.90;;;;;;4871416;29;20033;-77
2022/12/25 08:09:55;;;;;;;5.07;3.50;;;9.40;99.90;;;;;;4870941;29;20154;-76
2022/12/25 08:12:21;;;;;;;3.85;2.50;;;9.30;99.90;;;;;;4871215;29;20041;-76
2022/12/25 08:14:47;;;;;;;5.25;3.00;;;9.30;99.90;;;;;;4870730;29;20036;-76
2022/12/25 08:17:13;;;;;;;7.03;4.00;;;9.30;99.90;;;;;;4871256;29;20049;-76
2022/12/25 08:19:38;;;;;;;6.65;3.47;;;9.30;99.90;;;;;;4854705;29;20026;-76
2022/12/25 08:22:04;;;;;;;6.22;3.67;;;9.30;99.90;;;;;;4870340;29;20033;-78
2022/12/25 08:24:30;;;;;;;5.13;3.67;;;9.30;99.90;;;;;;4870803;29;20029;-77
2022/12/25 08:26:56;;;;;;;5.65;3.47;;;9.30;99.90;;;;;;4870174;29;20052;-78
2022/12/25 08:29:21;;;;;;;5.63;3.42;;;9.30;99.90;;;;;;4871299;29;20050;-76
2022/12/25 08:31:48;;;;;;;5.00;3.30;;;9.30;99.90;;;;;;4875878;29;20089;-77
2022/12/25 08:34:14;;;;;;;6.30;3.75;;;9.40;99.90;;;;;;4872733;29;20033;-77
2022/12/25 08:36:40;;;;;;;8.35;3.40;;;9.50;99.90;;;;;;4889492;29;20218;-75
2022/12/25 08:39:07;;;;;;;6.00;3.35;;;9.60;99.90;;;;;;4857133;29;20183;-75
2022/12/25 08:41:35;;;;;;;6.18;3.47;;;9.60;99.90;;;;;;4889474;29;20037;-74
2022/12/25 08:44:05;;;;;;;5.43;3.00;;;9.70;99.90;;;;;;4888533;29;20040;-76
2022/12/25 08:46:31;;;;;;;5.13;3.40;;;9.70;99.90;;;;;;4872572;29;20345;-75
2022/12/25 08:48:57;;;;;;;4.72;2.90;;;9.80;99.90;;;;;;4888975;29;20033;-75
2022/12/25 08:51:24;;;;;;;5.88;3.25;;;9.90;99.90;;;;;;4889277;29;20051;-76
2022/12/25 08:53:51;;;;;;;5.97;3.15;;;10.00;99.90;;;;;;4871947;29;20077;-76
2022/12/25 08:56:18;;;;;;;4.50;3.17;;;10.00;99.90;;;;;;4888595;29;20196;-76
2022/12/25 08:58:44;;;;;;;4.97;3.35;;;10.00;99.90;;;;;;4888826;29;20041;-75
2022/12/25 09:01:11;;;;;;;7.80;4.05;;;10.00;99.90;;;;;;4888204;29;20039;-76
2022/12/25 09:03:36;;;;;;;5.88;3.75;;;10.00;99.90;;;;;;4888894;29;20105;-76
2022/12/25 09:06:08;;;;;;;6.25;4.30;;;10.00;99.90;;;;;;4888100;29;20048;-76
2022/12/25 09:08:35;;;;;;;6.53;4.32;;;10.00;99.90;;;;;;4888190;29;20077;-76
2022/12/25 09:11:10;;;;;;;5.80;3.85;;;10.00;99.90;;;;;;4871519;29;20081;-74
2022/12/25 09:13:37;;;;;;;6.57;4.07;;;10.00;99.90;;;;;;4888714;29;20040;-77
2022/12/25 09:16:08;;;;;;;7.22;4.20;;;9.90;99.90;;;;;;4888307;29;20036;-77
2022/12/25 09:18:34;;;;;;;5.85;4.30;;;10.00;99.90;;;;;;4872003;29;20043;-76
2022/12/25 09:21:05;;;;;;;7.95;5.03;;;10.00;99.90;;;;;;4887618;29;20056;-77
2022/12/25 09:23:31;;;;;;;9.88;4.88;;;10.00;99.90;;;;;;4888258;29;20033;-77
2022/12/25 09:26:01;;;;;;;7.35;4.70;;;10.00;99.90;;;;;;4887901;29;20302;-77
2022/12/25 09:28:27;;;;;;;6.50;4.60;;;10.00;99.90;;;;;;4888717;29;20064;-76
2022/12/25 09:30:54;;;;;;;7.30;4.50;;;10.10;99.90;;;;;;4887977;29;20025;-76
2022/12/25 09:33:21;;;;;;;7.72;4.95;;;10.10;99.90;;;;;;4871878;29;20029;-77
2022/12/25 09:36:01;;;;;;;7.72;4.57;;;10.10;99.90;;;;;;4871773;29;20056;-75
2022/12/25 09:38:28;;;;;;;7.47;4.80;;;10.20;99.90;;;;;;4888260;29;20044;-75
2022/12/25 09:41:16;;;;;;;8.48;4.53;;;10.20;99.90;;;;;;4888007;29;20037;-77
2022/12/25 09:43:47;;;;;;;7.18;4.57;;;10.30;99.90;;;;;;4871404;29;20222;-75
2022/12/25 09:46:18;;;;;;;6.72;4.57;;;10.30;99.90;;;;;;4871123;29;20037;-75
2022/12/25 09:48:56;;;;;;;8.63;4.80;;;10.40;99.90;;;;;;4888350;29;20039;-75
2022/12/25 09:51:24;;;;;;;6.07;4.35;;;10.40;99.90;;;;;;4887867;29;20065;-76
2022/12/25 09:54:02;;;;;;;5.75;3.50;;;10.40;99.90;;;;;;4888135;29;20056;-73
2022/12/25 09:56:27;;;;;;;6.10;4.20;;;10.50;99.90;;;;;;4888148;29;20100;-77
2022/12/25 09:58:53;;;;;;;7.35;3.90;;;10.60;99.90;;;;;;4871119;29;20452;-74
2022/12/25 10:01:28;;;;;;;6.63;3.88;;;10.60;99.90;;;;;;4888061;29;20215;-71
2022/12/25 10:04:14;;;;;;;5.85;3.70;;;10.80;99.90;;;;;;4871570;29;20335;-73
2022/12/25 10:07:01;;;;;;;7.75;4.05;;;10.90;99.90;;;;;;4891766;29;20029;-72
2022/12/25 10:09:37;;;;;;;5.85;3.78;;;10.90;99.90;;;;;;4892369;29;20041;-72
2022/12/25 10:12:41;;;;;;;7.20;3.83;;;11.10;99.90;;;;;;4891396;29;20040;-72
2022/12/25 10:15:24;;;;;;;5.53;3.20;;;11.20;99.90;;;;;;4875271;29;20036;-73
2022/12/25 10:17:50;;;;;;;5.55;2.97;;;11.30;99.90;;;;;;4887724;29;20216;-73
2022/12/25 10:20:41;;;;;;;5.95;2.88;;;11.50;99.90;;;;;;4888614;29;20028;-73
2022/12/25 10:23:36;;;;;;;5.78;2.70;;;11.60;99.90;;;;;;4890630;29;20136;-73
2022/12/25 10:26:03;;;;;;;4.55;2.63;;;11.80;99.90;;;;;;4889299;29;20107;-73
2022/12/25 10:28:39;;;;;;;5.20;2.30;;;12.00;99.90;;;;;;4891245;29;20184;-73
2022/12/25 10:31:17;;;;;;;4.13;2.00;;;12.10;99.90;;;;;;4873818;29;20260;-72
2022/12/25 10:33:42;;;;;;;4.30;2.13;;;12.30;99.90;;;;;;4891029;29;20215;-73
2022/12/25 10:36:08;;;;;;;3.83;2.03;;;12.50;99.90;;;;;;4890385;29;20080;-72
2022/12/25 10:38:35;;;;;;;3.95;2.28;;;12.70;99.90;;;;;;4874514;29;20032;-73
2022/12/25 10:41:04;;;;;;;5.13;3.38;;;12.90;99.90;;;;;;4890510;29;20041;-73
2022/12/25 10:43:44;;;;;;;6.85;2.97;;;13.00;99.90;;;;;;4890929;29;20049;-72
2022/12/25 10:46:12;;;;;;;5.47;3.00;;;13.20;99.90;;;;;;4890657;29;20029;-72
2022/12/25 10:48:50;;;;;;;5.20;2.95;;;13.40;99.90;;;;;;4890993;29;20032;-72
2022/12/25 10:51:36;;;;;;;;;;;13.60;99.90;;;;;;4890745;29;20482;-73
2022/12/25 10:54:17;;;;;;;5.07;2.70;;;13.90;99.90;;;;;;4873435;29;20256;-73
2022/12/25 10:56:58;;;;;;;3.95;2.58;;;14.10;99.90;;;;;;4890703;29;20048;-73
2022/12/25 10:59:28;;;;;;;5.40;2.40;;;14.30;99.90;;;;;;4890745;29;20088;-73
2022/12/25 11:01:55;;;;;;;5.82;2.88;;;14.30;99.90;;;;;;4890392;29;20060;-72
2022/12/25 11:04:27;;;;;;;3.85;2.58;;;14.40;99.90;;;;;;4890386;29;20037;-73
2022/12/25 11:07:21;;;;;;;3.90;2.40;;;14.70;99.90;;;;;;4890626;29;20033;-73
2022/12/25 11:10:01;;;;;;;3.88;2.40;;;14.60;99.90;;;;;;4885280;29;20037;-73
2022/12/25 11:12:33;;;;;;;3.40;2.22;;;14.40;99.90;;;;;;4890675;29;20025;-72
2022/12/25 11:15:06;;;;;;;3.90;2.40;;;14.40;99.90;;;;;;4889793;29;20029;-73
2022/12/25 11:17:31;;;;;;;3.80;2.35;;;14.30;99.90;;;;;;4890456;29;20025;-72
2022/12/25 11:19:59;;;;;;;4.97;2.10;;;14.30;99.90;;;;;;4890168;29;20051;-73
2022/12/25 11:22:27;;;;;;;5.20;2.50;;;14.20;99.90;;;;;;4890350;29;20211;-73
2022/12/25 11:24:54;;;;;;;4.68;3.08;;;14.30;99.90;;;;;;4890259;29;20065;-72
2022/12/25 11:27:29;;;;;;;3.80;2.13;;;14.90;99.90;;;;;;4889867;29;20085;-72
2022/12/25 11:29:57;;;;;;;5.75;2.78;;;15.30;99.90;;;;;;4890178;29;20118;-72
2022/12/25 11:32:41;;;;;;;5.93;2.42;;;15.40;99.90;;;;;;4872278;29;20041;-74
2022/12/25 11:35:17;;;;;;;5.40;3.10;;;15.60;99.90;;;;;;4889491;29;20041;-74
2022/12/25 11:37:51;;;;;;;3.55;2.08;;;15.70;99.90;;;;;;4873575;29;20071;-75
2022/12/25 11:40:24;;;;;;;5.90;2.28;;;16.00;99.90;;;;;;4889409;29;20092;-74
2022/12/25 11:43:17;;;;;;;4.43;2.22;;;16.20;99.90;;;;;;4889969;29;20223;-74
2022/12/25 11:45:51;;;;;;;4.15;2.30;;;16.40;99.90;;;;;;4886909;29;20059;-73
2022/12/25 11:48:32;;;;;;;5.38;2.85;;;16.60;99.90;;;;;;4889434;29;20033;-72
2022/12/25 11:51:01;;;;;;;4.93;2.35;;;17.10;99.90;;;;;;4889857;29;20032;-74
2022/12/25 11:53:38;;;;;;;11.63;9.10;;;17.50;99.90;;;;;;4889669;29;20051;-72
2022/12/25 11:56:12;;;;;;;49.42;19.00;;;18.10;99.90;;;;;;4889125;29;20047;-73
2022/12/25 11:58:51;;;;;;;11.45;5.40;;;18.50;99.90;;;;;;4889880;29;20041;-73
2022/12/25 12:01:24;;;;;;;19.88;9.85;;;18.70;99.90;;;;;;4872038;29;20032;-72
2022/12/25 12:03:50;;;;;;;19.75;12.88;;;19.00;99.90;;;;;;4889769;29;20044;-73
2022/12/25 12:06:49;;;;;;;20.60;12.10;;;19.60;99.90;;;;;;4888816;29;20264;-73
2022/12/25 12:09:46;;;;;;;5.63;3.53;;;20.60;98.80;;;;;;4888711;29;20032;-73
2022/12/25 12:12:30;;;;;;;4.95;2.58;;;21.20;97.60;;;;;;4872325;29;20050;-73
2022/12/25 12:15:19;;;;;;;3.70;2.15;;;21.90;96.20;;;;;;4889607;29;20044;-73
2022/12/25 12:17:45;;;;;;;4.10;2.33;;;22.80;94.80;;;;;;4889383;29;20100;-73
2022/12/25 12:20:32;;;;;;;3.53;2.55;;;22.70;93.80;;;;;;4888744;29;20033;-73
2022/12/25 12:23:00;;;;;;;3.97;2.30;;;22.60;93.90;;;;;;4889229;29;20041;-74
2022/12/25 12:25:27;;;;;;;3.95;2.10;;;22.40;93.30;;;;;;4888633;29;20104;-74
2022/12/25 12:27:59;;;;;;;3.53;2.35;;;22.40;93.90;;;;;;4889364;29;20056;-75
2022/12/25 12:30:34;;;;;;;3.47;2.20;;;23.00;92.80;;;;;;4888965;29;20269;-74
2022/12/25 12:33:02;;;;;;;4.60;2.80;;;23.10;92.40;;;;;;4888962;29;20047;-73
2022/12/25 12:35:35;;;;;;;4.20;2.50;;;23.40;91.60;;;;;;4889040;29;20092;-73
2022/12/25 12:38:06;;;;;;;4.15;2.50;;;23.30;91.40;;;;;;4888809;29;20096;-74
2022/12/25 12:40:37;;;;;;;4.10;2.53;;;22.00;92.50;;;;;;4888777;29;20334;-73
2022/12/25 12:43:04;;;;;;;7.25;5.70;;;21.50;93.50;;;;;;4888339;29;20069;-71
2022/12/25 12:45:33;;;;;;;7.45;5.68;;;21.20;94.20;;;;;;4871985;29;20252;-72
2022/12/25 12:47:59;;;;;;;5.55;3.97;;;21.00;94.40;;;;;;4872281;29;20025;-73
2022/12/25 12:50:33;;;;;;;7.03;5.70;;;20.80;94.50;;;;;;4856341;29;20176;-72
2022/12/25 12:53:15;;;;;;;4.43;2.75;;;21.50;94.00;;;;;;4888918;29;20299;-73
2022/12/25 12:55:41;;;;;;;13.40;7.18;;;22.20;93.70;;;;;;4888595;29;20149;-72
2022/12/25 12:58:06;;;;;;;12.60;6.05;;;22.50;92.50;;;;;;4888226;29;20064;-72
2022/12/25 13:00:40;;;;;;;10.07;5.05;;;22.60;92.50;;;;;;4888525;29;20032;-73
2022/12/25 13:03:20;;;;;;;17.83;7.38;;;22.20;92.80;;;;;;4887492;29;20052;-72
2022/12/25 13:06:21;;;;;;;8.35;4.95;;;22.20;93.30;;;;;;5079058;28;20687;-75
2022/12/25 13:09:24;;;;;;;7.30;4.40;;;21.70;93.20;;;;;;5062477;28;20036;-74
2022/12/25 13:11:50;;;;;;;7.07;3.30;;;21.60;93.30;;;;;;5079039;28;20032;-73
2022/12/25 13:14:19;;;;;;;9.43;4.50;;;21.80;93.40;;;;;;5078485;28;20024;-72
2022/12/25 13:16:47;;;;;;;6.72;3.95;;;21.50;93.60;;;;;;5078670;28;20031;-74
2022/12/25 13:19:16;;;;;;;4.40;2.65;;;21.10;93.60;;;;;;5078288;28;20111;-74
2022/12/25 13:21:55;;;;;;;4.45;2.60;;;20.70;94.10;;;;;;5078643;28;20247;-72
2022/12/25 13:24:24;;;;;;;4.28;2.70;;;20.30;94.90;;;;;;5078261;28;20074;-73
2022/12/25 13:26:50;;;;;;;5.75;3.00;;;19.80;95.70;;;;;;5078730;28;20043;-73
2022/12/25 13:29:29;;;;;;;6.72;3.47;;;19.40;96.10;;;;;;5077734;28;20221;-76
2022/12/25 13:31:58;;;;;;;4.75;2.80;;;19.00;96.70;;;;;;5078417;28;20043;-75
2022/12/25 13:34:40;;;;;;;4.25;2.70;;;19.00;96.90;;;;;;5078228;28;20028;-74
2022/12/25 13:37:08;;;;;;;4.47;2.55;;;18.80;97.40;;;;;;5078528;28;20336;-74
2022/12/25 13:39:38;;;;;;;6.68;4.18;;;18.60;97.70;;;;;;5078651;28;20033;-74
2022/12/25 13:42:05;;;;;;;8.32;5.40;;;18.50;98.00;;;;;;5078302;28;20078;-74
2022/12/25 13:44:39;;;;;;;5.97;4.40;;;18.50;98.30;;;;;;5078213;28;20035;-74
2022/12/25 13:47:16;;;;;;;5.22;3.40;;;18.70;98.00;;;;;;5077090;28;20469;-74
2022/12/25 13:49:41;;;;;;;6.07;2.92;;;18.50;98.20;;;;;;5078347;28;20033;-74
2022/12/25 13:52:13;;;;;;;5.78;3.30;;;18.70;98.80;;;;;;5077508;28;20029;-75
2022/12/25 13:54:49;;;;;;;7.55;4.38;;;18.50;98.00;;;;;;5078142;28;20041;-74
2022/12/25 13:57:17;;;;;;;7.00;4.18;;;18.30;98.40;;;;;;5077678;28;20048;-75
2022/12/25 13:59:43;;;;;;;5.05;2.97;;;17.90;98.90;;;;;;5077019;28;20100;-74
2022/12/25 14:02:19;;;;;;;5.53;3.30;;;17.60;99.50;;;;;;5076348;28;20357;-74
2022/12/25 14:04:45;;;;;;;6.15;3.33;;;17.50;99.90;;;;;;5077591;28;20048;-74
2022/12/25 14:07:17;;;;;;;9.63;5.68;;;17.50;99.90;;;;;;5077112;28;20029;-74
2022/12/25 14:09:43;;;;;;;9.57;6.60;;;17.30;99.90;;;;;;5077904;28;20025;-74
2022/12/25 14:12:08;;;;;;;6.82;3.50;;;17.30;99.90;;;;;;5075879;28;20059;-73
2022/12/25 14:14:36;;;;;;;5.78;3.58;;;17.10;99.90;;;;;;5077558;28;20112;-74
2022/12/25 14:17:01;;;;;;;11.05;5.78;;;17.00;99.90;;;;;;5064439;28;20037;-74
2022/12/25 14:19:32;;;;;;;7.38;4.05;;;16.90;99.90;;;;;;5063804;28;20172;-74
2022/12/25 14:22:17;;;;;;;6.55;3.95;;;16.80;99.90;;;;;;5064214;28;20035;-74
2022/12/25 14:24:43;;;;;;;7.68;3.35;;;16.60;99.90;;;;;;5063472;28;20306;-74
2022/12/25 14:27:46;;;;;;;6.88;3.13;;;16.50;99.90;;;;;;5064546;28;20056;-74
2022/12/25 14:30:12;;;;;;;5.72;3.20;;;16.30;99.90;;;;;;5052432;28;20092;-74
2022/12/25 14:32:42;;;;;;;7.00;4.15;;;16.10;99.90;;;;;;5063917;28;20033;-74
2022/12/25 14:35:10;;;;;;;8.75;4.60;;;15.80;99.90;;;;;;5063894;28;20024;-75
2022/12/25 14:37:37;;;;;;;6.85;3.85;;;15.70;99.90;;;;;;5064280;28;20029;-75
2022/12/25 14:40:19;;;;;;;7.22;4.60;;;15.50;99.90;;;;;;5063963;28;20036;-74
2022/12/25 14:42:55;;;;;;;6.78;4.13;;;15.30;99.90;;;;;;5064250;28;20037;-74
2022/12/25 14:45:28;;;;;;;4.78;3.22;;;15.20;99.90;;;;;;5063332;28;20032;-74
2022/12/25 14:47:57;;;;;;;6.22;3.80;;;15.00;99.90;;;;;;5063737;28;20378;-74
2022/12/25 14:50:41;;;;;;;6.18;3.78;;;14.90;99.90;;;;;;5062141;28;20065;-74
2022/12/25 14:53:19;;;;;;;7.72;4.40;;;14.90;99.90;;;;;;5063908;28;20040;-75
2022/12/25 14:55:52;;;;;;;8.05;4.55;;;14.90;99.90;;;;;;5062539;28;20275;-74
2022/12/25 14:58:21;;;;;;;20.75;13.93;;;14.80;99.90;;;;;;5041109;28;20056;-74
2022/12/25 15:00:57;;;;;;;9.95;6.47;;;14.70;99.90;;;;;;5063333;28;20041;-74
2022/12/25 15:03:33;;;;;;;23.02;15.15;;;14.60;99.90;;;;;;5063179;28;20029;-72
2022/12/25 15:06:05;;;;;;;13.02;8.95;;;14.60;99.90;;;;;;5063446;28;20372;-73
2022/12/25 15:08:33;;;;;;;12.55;6.22;;;14.50;99.90;;;;;;5063037;28;20457;-73
2022/12/25 15:10:59;;;;;;;8.35;5.05;;;14.50;99.90;;;;;;5064448;28;20088;-71
2022/12/25 15:13:26;;;;;;;8.18;5.00;;;14.40;99.90;;;;;;5069545;28;20039;-71
2022/12/25 15:16:12;;;;;;;8.80;4.88;;;14.30;99.90;;;;;;5069657;28;20032;-72
2022/12/25 15:18:40;;;;;;;8.55;5.22;;;14.20;99.90;;;;;;5070469;28;20025;-73
2022/12/25 15:21:12;;;;;;;;;;;14.00;99.90;;;;;;5063865;28;20033;-73
2022/12/25 15:23:38;;;;;;;5.55;3.45;;;13.90;99.90;;;;;;5063649;28;19968;-73
2022/12/25 15:26:04;;;;;;;7.45;4.25;;;13.80;99.90;;;;;;5063283;28;20106;-73
2022/12/25 15:28:29;;;;;;;9.77;5.45;;;13.70;99.90;;;;;;5061639;28;20361;-72
2022/12/25 15:30:55;;;;;;;7.13;4.72;;;13.60;99.90;;;;;;5063312;28;20063;-72
2022/12/25 15:33:21;;;;;;;10.38;6.93;;;13.50;99.90;;;;;;5061111;28;20033;-73
2022/12/25 15:35:47;;;;;;;8.65;4.95;;;13.40;99.90;;;;;;5063238;28;20025;-72
2022/12/25 15:38:13;;;;;;;8.48;4.57;;;13.30;99.90;;;;;;5062670;28;20037;-73
2022/12/25 15:40:40;;;;;;;8.15;4.75;;;13.30;99.90;;;;;;5061661;28;20055;-72
2022/12/25 15:43:06;;;;;;;11.18;4.90;;;13.20;99.90;;;;;;5062897;28;20370;-72
2022/12/25 15:45:31;;;;;;;8.00;4.60;;;13.20;99.90;;;;;;5062136;28;20036;-72
2022/12/25 15:47:57;;;;;;;7.90;3.47;;;13.10;99.90;;;;;;5062823;28;20045;-73
2022/12/25 15:50:23;;;;;;;7.68;4.07;;;13.20;99.90;;;;;;5062005;28;20310;-73
2022/12/25 15:52:50;;;;;;;6.07;3.38;;;13.10;99.90;;;;;;5061579;28;20028;-72
2022/12/25 15:55:16;;;;;;;5.32;3.10;;;13.20;99.90;;;;;;5061883;28;20215;-73
2022/12/25 15:57:43;;;;;;;4.72;2.78;;;13.30;99.90;;;;;;5062396;28;20037;-73
2022/12/25 16:00:21;;;;;;;5.25;2.25;;;13.30;99.90;;;;;;5062279;28;20274;-72
2022/12/25 16:02:47;;;;;;;3.53;2.13;;;13.40;99.90;;;;;;5062171;28;20036;-73
2022/12/25 16:05:13;;;;;;;4.97;2.85;;;13.40;99.90;;;;;;5062392;28;20056;-72
2022/12/25 16:07:39;;;;;;;6.32;3.40;;;13.60;99.90;;;;;;5062054;28;20035;-72
2022/12/25 16:10:11;;;;;;;7.18;3.20;;;13.50;99.90;;;;;;5062427;28;20044;-73
2022/12/25 16:12:37;;;;;;;4.47;2.80;;;13.40;99.90;;;;;;5061900;28;20095;-72
2022/12/25 16:15:04;;;;;;;7.65;3.13;;;13.40;99.90;;;;;;5062016;28;20242;-74
2022/12/25 16:17:29;;;;;;;6.05;3.40;;;13.40;99.90;;;;;;5060343;28;20278;-74
2022/12/25 16:19:55;;;;;;;6.25;3.85;;;13.40;99.90;;;;;;5062054;28;20028;-74
2022/12/25 16:22:24;;;;;;;5.45;3.08;;;13.30;99.90;;;;;;5061379;28;20033;-74
2022/12/25 16:24:51;;;;;;;6.18;3.58;;;13.30;99.90;;;;;;5062221;28;20048;-74
2022/12/25 16:27:17;;;;;;;6.13;3.58;;;13.30;99.90;;;;;;5061566;28;20048;-75
2022/12/25 16:29:43;;;;;;;4.85;2.92;;;13.20;99.90;;;;;;5062183;28;20040;-75
2022/12/25 16:32:13;;;;;;;5.72;2.75;;;13.20;99.90;;;;;;5062001;28;20040;-74
2022/12/25 16:34:39;;;;;;;6.30;2.70;;;13.20;99.90;;;;;;5043617;28;20330;-74
2022/12/25 16:37:05;;;;;;;9.68;4.60;;;13.20;99.90;;;;;;5061620;28;20078;-73
2022/12/25 16:39:31;;;;;;;6.25;3.20;;;13.10;99.90;;;;;;5060799;28;20092;-74
2022/12/25 16:41:57;;;;;;;3.22;2.00;;;13.10;99.90;;;;;;5061508;28;20094;-74
2022/12/25 16:44:22;;;;;;;7.00;4.10;;;13.10;99.90;;;;;;5060885;28;20048;-73
2022/12/25 16:46:48;;;;;;;6.15;3.38;;;13.10;99.90;;;;;;5061500;28;20049;-73
2022/12/25 16:49:14;;;;;;;5.32;2.28;;;13.10;99.90;;;;;;5060563;28;20021;-73
2022/12/25 16:51:39;;;;;;;5.20;3.25;;;13.10;99.90;;;;;;5060992;28;20052;-71
2022/12/25 16:54:05;;;;;;;7.30;3.70;;;13.10;99.90;;;;;;5061443;28;20037;-72
2022/12/25 16:56:31;;;;;;;4.00;2.42;;;13.10;99.90;;;;;;5061233;28;20052;-74
2022/12/25 16:58:57;;;;;;;3.88;1.63;;;13.10;99.90;;;;;;5061796;28;20314;-72
2022/12/25 17:01:23;;;;;;;3.08;1.40;;;13.20;99.90;;;;;;5061094;28;20055;-72
2022/12/25 17:03:50;;;;;;;3.17;1.40;;;13.30;99.90;;;;;;5061374;28;20045;-72
2022/12/25 17:06:27;;;;;;;4.90;2.55;;;13.40;99.90;;;;;;5061627;28;20025;-74
2022/12/25 17:08:56;;;;;;;3.35;1.70;;;13.40;99.90;;;;;;5061266;28;20041;-74
2022/12/25 17:11:26;;;;;;;3.33;1.92;;;13.50;99.90;;;;;;5060601;28;20271;-74
2022/12/25 17:13:52;;;;;;;3.33;2.00;;;13.50;99.90;;;;;;5061357;28;20037;-74
2022/12/25 17:16:24;;;;;;;3.10;1.52;;;13.40;99.90;;;;;;5060357;28;20017;-74
2022/12/25 17:18:55;;;;;;;3.95;1.55;;;13.30;99.90;;;;;;5061303;28;20041;-75
2022/12/25 17:21:22;;;;;;;2.92;1.20;;;13.30;99.90;;;;;;5060642;28;20342;-75
2022/12/25 17:23:48;;;;;;;3.67;1.08;;;13.30;99.90;;;;;;5061219;28;20088;-75
2022/12/25 17:26:13;;;;;;;3.15;1.08;;;13.30;99.90;;;;;;5061177;28;20083;-75
2022/12/25 17:28:39;;;;;;;1.88;0.90;;;13.40;99.90;;;;;;5060749;28;20306;-72
2022/12/25 17:31:07;;;;;;;2.53;1.10;;;13.60;99.90;;;;;;5050602;28;20052;-73
2022/12/25 17:33:41;;;;;;;2.83;0.98;;;13.60;99.90;;;;;;5033376;28;20037;-73
2022/12/25 17:36:11;;;;;;;2.60;0.70;;;13.80;99.90;;;;;;5041533;28;20037;-73
2022/12/25 17:38:37;;;;;;;2.22;0.90;;;13.90;99.90;;;;;;5020039;28;20018;-73
2022/12/25 17:41:05;;;;;;;2.42;0.90;;;13.90;99.90;;;;;;5021599;28;20377;-73
2022/12/25 17:43:32;;;;;;;1.90;0.90;;;13.80;99.90;;;;;;5021352;28;20034;-73
2022/12/25 17:46:04;;;;;;;2.17;1.00;;;13.90;99.90;;;;;;5021962;28;20433;-73
2022/12/25 17:48:30;;;;;;;2.40;0.90;;;13.90;99.90;;;;;;5022881;28;20312;-73
2022/12/25 17:51:03;;;;;;;1.80;0.85;;;13.80;99.90;;;;;;5042500;28;20034;-73
2022/12/25 17:53:29;;;;;;;2.65;1.13;;;13.80;99.90;;;;;;5044559;28;20037;-73
2022/12/25 17:55:58;;;;;;;3.47;1.13;;;13.70;99.90;;;;;;5044053;28;20049;-74
2022/12/25 17:58:25;;;;;;;2.85;1.10;;;13.80;99.90;;;;;;5044344;28;20025;-76
2022/12/25 18:00:51;;;;;;;2.75;1.00;;;13.70;99.90;;;;;;5044918;28;20066;-74
2022/12/25 18:03:17;;;;;;;2.70;1.27;;;13.70;99.90;;;;;;5045024;28;20013;-73
2022/12/25 18:05:43;;;;;;;3.13;1.30;;;13.70;99.90;;;;;;5044738;28;20056;-73
2022/12/25 18:08:09;;;;;;;2.28;1.20;;;13.60;99.90;;;;;;5044717;28;20033;-73
2022/12/25 18:10:36;;;;;;;2.88;1.48;;;13.60;99.90;;;;;;5044325;28;20034;-73
2022/12/25 18:13:02;;;;;;;5.80;1.65;;;13.50;99.90;;;;;;5043723;28;20037;-72
2022/12/25 18:15:28;;;;;;;3.03;1.63;;;13.40;99.90;;;;;;5044389;28;20041;-73
2022/12/25 18:17:53;;;;;;;2.85;1.40;;;13.40;99.90;;;;;;5044916;28;20024;-74
2022/12/25 18:20:19;;;;;;;3.10;1.48;;;13.30;99.90;;;;;;5044871;28;20025;-73
2022/12/25 18:22:45;;;;;;;3.28;1.20;;;13.40;99.90;;;;;;5044259;28;20192;-75
2022/12/25 18:25:10;;;;;;;3.83;1.20;;;13.40;99.90;;;;;;5044214;28;20044;-72
2022/12/25 18:27:36;;;;;;;2.10;1.10;;;13.40;99.90;;;;;;5059905;28;20037;-72
2022/12/25 18:30:02;;;;;;;2.40;1.30;;;13.30;99.90;;;;;;5044204;28;20188;-73
2022/12/25 18:32:28;;;;;;;1.90;1.00;;;13.30;99.90;;;;;;5043534;28;20075;-74
2022/12/25 18:34:54;;;;;;;2.03;1.02;;;13.20;99.90;;;;;;5044515;28;20021;-75
2022/12/25 18:37:19;;;;;;;2.88;1.40;;;13.20;99.90;;;;;;5043346;28;20040;-73
2022/12/25 18:39:46;;;;;;;2.47;1.10;;;13.20;99.90;;;;;;5042098;28;20046;-73
2022/12/25 18:44:56;;;;;;;2.10;0.88;;;13.20;99.90;;;;;;5044001;28;20044;-75
2022/12/25 18:47:22;;;;;;;2.60;1.30;;;13.20;99.90;;;;;;5044157;28;20033;-75
2022/12/25 18:49:47;;;;;;;2.50;1.10;;;13.30;99.90;;;;;;5043246;28;20337;-73
2022/12/25 18:52:13;;;;;;;2.40;1.20;;;13.20;99.90;;;;;;5043995;28;20025;-75
2022/12/25 18:54:39;;;;;;;3.22;1.20;;;13.20;99.90;;;;;;5043918;28;20033;-74
2022/12/25 18:57:05;;;;;;;3.33;1.50;;;13.20;99.90;;;;;;5044268;28;20021;-74
2022/12/25 18:59:30;;;;;;;1.95;1.27;;;13.20;99.90;;;;;;5058763;28;20220;-75
2022/12/25 19:01:56;;;;;;;2.30;1.30;;;13.20;99.90;;;;;;5044000;28;20125;-75
2022/12/25 19:04:22;;;;;;;2.70;1.10;;;13.20;99.90;;;;;;5043377;28;20065;-75